Main page
METAR-TAF:

METAR-TAF

Airports :

Tangier, Morocco

Tangier Ibn Battouta Airport

latitude: 35-44N, longitude: 005-54W, elevation: 19 m

Current weather observation

The report was made 5 minutes ago, at 04:30 UTC
Wind 1 kt from variable directions
Temperature 13°C
Humidity 88%
Pressure 1016 hPa

METAR: GMTT 270430Z AUTO VRB01KT R28///// /// 13/11 Q1016

Time: 05:35 (04:35 UTC)

Forecast

The report was made 5 hours and 35 minutes ago, at 23:00 UTC
Forecast valid from 27 at 00 UTC to 28 at 06 UTC
Wind 2 kt from variable directions
Visibility: 6000 m
Few clouds at a height of 1000 ft
Probability 40% :
Temporary
from 27 at 03 UTC to 27 at 09 UTC
Visibility: 3000 m
mist

TAF: GMTT 262300Z 2700/2806 VRB02KT 6000 FEW010 PROB40 TEMPO 2703/2709 3000 BR

Weather observations and forecasts of more than 4000 airports (METAR and TAF reports).

The available stations are represented by yellow and red dots on the map.

Hover mouse over dot to see the name of the station.

Then click to see weather observations and forecasts.

To change the map : click on the green buttons with a black cross to zoom in, on the green button with a dash to zoom out, or on the green arrows for adjacent maps.


METAR-TAF: